createdAt,value
2024-02-28T00:07:32.377Z,36.40
2024-02-28T00:17:38.138Z,35.50
2024-02-28T00:27:44.243Z,41.60
2024-02-28T00:37:50.149Z,43.40
2024-02-28T00:47:56.574Z,45.00
2024-02-28T00:58:02.685Z,45.20
2024-02-28T01:08:09.860Z,47.00
2024-02-28T01:18:15.931Z,42.80
2024-02-28T01:28:24.314Z,40.80
2024-02-28T01:38:30.438Z,44.30
2024-02-28T01:48:36.538Z,43.00
2024-02-28T01:58:43.196Z,43.20
2024-02-28T02:08:50.017Z,44.00
2024-02-28T02:18:58.292Z,42.10
2024-02-28T02:29:04.570Z,39.50
2024-02-28T02:39:10.855Z,39.50
2024-02-28T02:49:16.910Z,38.10
2024-02-28T02:59:23.356Z,36.00
2024-02-28T03:09:29.556Z,39.50
2024-02-28T03:19:36.754Z,39.60
2024-02-28T03:29:42.770Z,38.00
2024-02-28T03:39:50.945Z,39.00
2024-02-28T03:49:58.686Z,37.00
2024-02-28T04:00:07.316Z,37.50
2024-02-28T04:10:15.895Z,38.00
2024-02-28T04:20:22.125Z,38.80
2024-02-28T04:30:27.937Z,37.60
2024-02-28T04:40:34.150Z,40.80
2024-02-28T04:50:40.071Z,38.80
2024-02-28T05:00:46.100Z,44.90
2024-02-28T05:10:53.308Z,41.20
2024-02-28T05:21:00.071Z,36.20
2024-02-28T05:31:21.318Z,42.50
2024-02-28T05:41:29.707Z,42.00
2024-02-28T05:51:35.939Z,41.80
2024-02-28T06:01:42.401Z,44.70
2024-02-28T06:11:50.393Z,44.00
2024-02-28T06:21:56.307Z,41.80
2024-02-28T06:32:02.298Z,41.30
2024-02-28T06:42:09.719Z,41.50
2024-02-28T07:02:20.242Z,38.20
2024-02-28T07:12:26.677Z,39.10
2024-02-28T07:22:33.330Z,39.10
2024-02-28T07:32:39.372Z,39.00
2024-02-28T07:42:45.634Z,36.00
2024-02-28T07:52:51.597Z,38.00
2024-02-28T08:02:57.893Z,34.60
2024-02-28T08:13:04.075Z,41.30
2024-02-28T08:23:10.559Z,35.70
2024-02-28T08:33:18.424Z,42.70
2024-02-28T08:43:25.016Z,37.00
2024-02-28T08:53:31.171Z,38.70
2024-02-28T09:03:37.263Z,38.00
2024-02-28T09:13:43.349Z,38.00
2024-02-28T09:23:49.436Z,36.70
2024-02-28T09:33:55.556Z,35.00
2024-02-28T09:44:02.416Z,35.00
2024-02-28T09:54:08.854Z,32.60
2024-02-28T10:04:16.173Z,28.10
2024-02-28T10:14:22.553Z,29.10
2024-02-28T10:24:29.444Z,25.00
2024-02-28T10:34:36.577Z,26.30
2024-02-28T10:44:45.871Z,26.30
2024-02-28T10:54:56.599Z,25.60
2024-02-28T11:05:03.287Z,26.50
2024-02-28T11:15:19.649Z,25.40
2024-02-28T11:25:25.900Z,23.20
2024-02-28T11:35:32.654Z,20.40
2024-02-28T11:45:44.851Z,21.70
2024-02-28T11:55:50.908Z,21.60
2024-02-28T12:05:57.546Z,20.90
2024-02-28T12:16:04.841Z,19.00
2024-02-28T12:26:10.950Z,15.60
2024-02-28T12:36:17.002Z,16.50
2024-02-28T12:46:23.326Z,13.10
2024-02-28T12:56:29.350Z,11.80
2024-02-28T13:06:35.466Z,10.90
2024-02-28T13:16:41.324Z,12.80
2024-02-28T13:26:47.781Z,10.70
2024-02-28T13:36:53.806Z,12.20
2024-02-28T13:46:59.949Z,12.00
2024-02-28T13:57:09.156Z,12.90
2024-02-28T14:07:17.722Z,13.40
2024-02-28T14:17:24.145Z,13.90
2024-02-28T14:27:34.301Z,13.00
2024-02-28T14:37:41.074Z,13.10
2024-02-28T14:47:47.460Z,13.00
2024-02-28T14:57:53.838Z,11.70
2024-02-28T15:07:59.992Z,13.60
2024-02-28T15:18:06.232Z,11.60
2024-02-28T15:28:14.500Z,12.80
2024-02-28T15:38:20.610Z,13.60
2024-02-28T15:48:26.649Z,11.20
2024-02-28T15:58:32.572Z,12.10
2024-02-28T16:08:43.461Z,12.50
2024-02-28T16:18:51.713Z,14.20
2024-02-28T16:28:58.622Z,13.00
2024-02-28T16:39:04.817Z,11.90
2024-02-28T16:49:10.797Z,14.90
2024-02-28T16:59:16.889Z,14.80
2024-02-28T17:09:22.908Z,15.50
2024-02-28T17:19:29.180Z,13.40
2024-02-28T17:29:37.227Z,12.70
2024-02-28T17:39:43.261Z,15.00
2024-02-28T17:49:49.331Z,14.80
2024-02-28T17:59:55.467Z,15.10
2024-02-28T18:10:01.483Z,19.50
2024-02-28T18:20:11.555Z,17.60
2024-02-28T18:30:24.532Z,16.80
2024-02-28T18:40:30.658Z,19.70
2024-02-28T18:50:36.722Z,18.00
2024-02-28T19:00:47.823Z,19.10
2024-02-28T19:10:54.728Z,18.70
2024-02-28T19:21:00.532Z,19.10
2024-02-28T19:41:15.280Z,20.20
2024-02-28T19:51:21.585Z,21.60
2024-02-28T20:01:27.946Z,20.50
2024-02-28T20:11:34.258Z,19.40
2024-02-28T20:21:40.441Z,23.10
2024-02-28T20:31:46.471Z,19.00
2024-02-28T20:41:52.678Z,21.20
2024-02-28T20:52:01.108Z,20.90
2024-02-28T21:02:07.648Z,23.40
2024-02-28T21:12:15.070Z,24.40
2024-02-28T21:22:20.989Z,23.20
2024-02-28T21:32:27.156Z,24.10
2024-02-28T21:42:33.262Z,21.40
2024-02-28T21:52:39.416Z,13.30
2024-02-28T22:02:45.207Z,10.30
2024-02-28T22:12:51.859Z,9.60
2024-02-28T22:22:57.900Z,9.70
2024-02-28T22:33:04.945Z,14.00
2024-02-28T22:43:11.664Z,11.60
2024-02-28T22:53:18.313Z,10.10
2024-02-28T23:03:24.525Z,10.80
2024-02-28T23:13:30.760Z,9.30
2024-02-28T23:23:37.263Z,10.20
2024-02-28T23:33:43.393Z,11.40
2024-02-28T23:43:52.833Z,10.80
2024-02-28T23:54:00.276Z,9.40
